createdAt,value
2019-03-27T00:01:32.061Z,16.95
2019-03-27T00:06:39.497Z,15.28
2019-03-27T00:11:46.980Z,11.38
2019-03-27T00:16:55.373Z,12.45
2019-03-27T00:22:02.796Z,13.70
2019-03-27T00:27:10.178Z,15.25
2019-03-27T00:32:17.571Z,12.78
2019-03-27T00:37:24.923Z,14.95
2019-03-27T00:42:32.278Z,13.18
2019-03-27T00:47:39.690Z,17.30
2019-03-27T00:52:47.081Z,15.10
2019-03-27T00:57:54.433Z,13.75
2019-03-27T01:03:01.799Z,16.95
2019-03-27T01:08:09.233Z,17.10
2019-03-27T01:13:16.607Z,14.60
2019-03-27T01:18:24.044Z,16.27
2019-03-27T01:23:31.441Z,11.20
2019-03-27T01:28:38.796Z,12.65
2019-03-27T01:33:46.148Z,12.68
2019-03-27T01:38:53.450Z,14.50
2019-03-27T01:44:01.844Z,12.40
2019-03-27T01:49:09.256Z,10.82
2019-03-27T01:54:16.594Z,10.28
2019-03-27T01:59:24.007Z,12.95
2019-03-27T02:04:31.453Z,13.53
2019-03-27T02:09:38.884Z,17.73
2019-03-27T02:14:46.346Z,22.15
2019-03-27T02:19:53.791Z,19.70
2019-03-27T02:25:01.223Z,16.87
2019-03-27T02:30:10.465Z,22.15
2019-03-27T02:35:17.861Z,16.05
2019-03-27T02:40:25.262Z,19.23
2019-03-27T02:45:32.690Z,15.80
2019-03-27T02:50:40.158Z,13.18
2019-03-27T02:55:47.548Z,17.70
2019-03-27T03:00:55.139Z,17.87
2019-03-27T03:06:02.559Z,16.48
2019-03-27T03:11:09.933Z,15.50
2019-03-27T03:16:17.464Z,16.20
2019-03-27T03:21:24.783Z,19.20
2019-03-27T03:26:32.122Z,13.70
2019-03-27T03:31:39.473Z,19.52
2019-03-27T03:36:46.897Z,20.90
2019-03-27T03:41:54.235Z,20.77
2019-03-27T03:47:01.626Z,22.35
2019-03-27T03:52:09.412Z,22.17
2019-03-27T03:57:17.359Z,27.90
2019-03-27T04:02:26.964Z,22.52
2019-03-27T04:07:34.348Z,20.15
2019-03-27T04:12:41.885Z,18.45
2019-03-27T04:17:49.082Z,14.63
2019-03-27T04:22:57.565Z,20.40
2019-03-27T04:28:06.020Z,20.57
2019-03-27T04:33:13.421Z,25.20
2019-03-27T04:38:20.861Z,21.90
2019-03-27T04:43:28.298Z,21.52
2019-03-27T04:48:35.658Z,16.87
2019-03-27T04:53:43.106Z,21.85
2019-03-27T04:58:50.444Z,19.67
2019-03-27T05:03:58.254Z,23.90
2019-03-27T05:09:06.826Z,24.43
2019-03-27T05:14:14.265Z,17.10
2019-03-27T05:19:21.454Z,21.77
2019-03-27T05:24:28.873Z,17.25
2019-03-27T05:29:36.290Z,22.13
2019-03-27T05:34:43.712Z,22.58
2019-03-27T05:39:51.259Z,19.80
2019-03-27T05:44:58.686Z,18.17
2019-03-27T05:50:06.897Z,21.40
2019-03-27T05:55:14.315Z,23.07
2019-03-27T06:00:22.702Z,19.92
2019-03-27T06:05:30.070Z,20.60
2019-03-27T06:10:37.362Z,19.55
2019-03-27T06:15:45.247Z,19.80
2019-03-27T06:20:52.861Z,19.02
2019-03-27T06:26:01.400Z,21.80
2019-03-27T06:31:08.816Z,21.85
2019-03-27T06:36:16.175Z,27.75
2019-03-27T06:41:23.454Z,29.85
2019-03-27T06:46:30.960Z,36.20
2019-03-27T06:51:40.361Z,31.80
2019-03-27T06:56:47.231Z,33.90
2019-03-27T07:01:54.678Z,34.85
2019-03-27T07:07:01.971Z,28.45
2019-03-27T07:12:20.526Z,26.45
2019-03-27T07:17:18.723Z,33.42
2019-03-27T07:22:26.159Z,31.45
2019-03-27T07:27:33.588Z,25.75
2019-03-27T07:32:40.936Z,29.10
2019-03-27T07:37:48.382Z,36.60
2019-03-27T07:42:55.639Z,29.42
2019-03-27T07:48:02.900Z,30.95
2019-03-27T07:53:10.423Z,32.60
2019-03-27T07:58:17.854Z,27.55
2019-03-27T08:03:25.279Z,31.90
2019-03-27T08:08:32.632Z,29.80
2019-03-27T08:13:41.009Z,25.55
2019-03-27T08:18:48.430Z,24.43
2019-03-27T08:23:55.708Z,26.35
2019-03-27T08:29:03.140Z,26.17
2019-03-27T08:34:10.415Z,23.18
2019-03-27T08:39:17.745Z,23.62
2019-03-27T08:44:25.166Z,20.45
2019-03-27T08:49:32.509Z,25.65
2019-03-27T08:54:39.843Z,24.55
2019-03-27T08:59:47.288Z,24.80
2019-03-27T09:04:54.735Z,25.20
2019-03-27T09:10:02.162Z,26.60
2019-03-27T09:15:10.624Z,22.55
2019-03-27T09:20:18.139Z,25.97
2019-03-27T09:25:25.565Z,20.77
2019-03-27T09:30:32.907Z,27.60
2019-03-27T09:35:40.770Z,23.38
2019-03-27T09:40:48.262Z,22.50
2019-03-27T09:45:55.707Z,19.42
2019-03-27T09:51:03.129Z,24.05
2019-03-27T09:56:18.961Z,17.70
2019-03-27T10:01:19.605Z,21.73
2019-03-27T10:06:27.037Z,16.27
2019-03-27T10:11:34.483Z,20.20
2019-03-27T10:16:41.824Z,19.50
2019-03-27T10:21:49.238Z,19.07
2019-03-27T10:26:56.687Z,23.65
2019-03-27T10:32:04.105Z,18.52
2019-03-27T10:37:11.474Z,16.80
2019-03-27T10:42:18.895Z,22.25
2019-03-27T10:47:26.316Z,17.15
2019-03-27T10:52:33.690Z,16.67
2019-03-27T10:57:41.116Z,23.20
2019-03-27T11:02:48.467Z,17.65
2019-03-27T11:07:55.818Z,18.10
2019-03-27T11:13:03.197Z,17.37
2019-03-27T11:18:10.690Z,22.37
2019-03-27T11:23:18.126Z,24.75
2019-03-27T11:28:25.582Z,23.47
2019-03-27T11:33:33.000Z,19.37
2019-03-27T11:38:40.438Z,17.82
2019-03-27T11:43:54.689Z,18.70
2019-03-27T11:48:57.013Z,15.45
2019-03-27T11:54:04.394Z,20.68
2019-03-27T11:59:11.841Z,14.45
2019-03-27T12:04:19.275Z,14.13
2019-03-27T12:09:26.629Z,14.28
2019-03-27T12:14:34.079Z,15.83
2019-03-27T12:19:41.483Z,14.83
2019-03-27T12:24:48.903Z,15.40
2019-03-27T12:29:56.251Z,13.22
2019-03-27T12:35:03.677Z,12.05
2019-03-27T12:40:12.155Z,12.80
2019-03-27T12:45:19.755Z,9.70
2019-03-27T12:50:27.091Z,15.30
2019-03-27T12:55:34.765Z,14.20
2019-03-27T13:00:42.436Z,12.70
2019-03-27T13:05:49.973Z,12.35
2019-03-27T13:10:57.244Z,12.88
2019-03-27T13:16:04.664Z,9.05
2019-03-27T13:21:25.718Z,11.40
2019-03-27T13:26:22.794Z,8.55
2019-03-27T13:31:30.204Z,12.70
2019-03-27T13:36:39.204Z,8.80
2019-03-27T13:41:46.775Z,13.75
2019-03-27T13:46:54.182Z,12.10
2019-03-27T13:52:01.844Z,13.80
2019-03-27T13:57:09.181Z,10.53
2019-03-27T14:02:16.534Z,9.35
2019-03-27T14:07:23.849Z,10.80
2019-03-27T14:12:31.451Z,9.38
2019-03-27T14:17:38.968Z,12.05
2019-03-27T14:22:46.262Z,12.25
2019-03-27T14:27:54.040Z,9.53
2019-03-27T14:33:01.487Z,8.58
2019-03-27T14:38:09.310Z,8.00
2019-03-27T14:43:16.992Z,11.15
2019-03-27T14:48:25.505Z,10.58
2019-03-27T14:53:32.833Z,9.13
2019-03-27T14:58:40.183Z,12.93
2019-03-27T15:03:47.588Z,11.70
2019-03-27T15:08:54.953Z,8.90
2019-03-27T15:14:02.402Z,9.98
2019-03-27T15:19:09.781Z,8.65
2019-03-27T15:24:20.460Z,10.38
2019-03-27T15:29:26.657Z,7.20
2019-03-27T15:34:34.542Z,13.35
2019-03-27T15:39:42.551Z,14.10
2019-03-27T15:44:50.093Z,9.80
2019-03-27T15:49:57.563Z,11.15
2019-03-27T15:55:05.366Z,9.58
2019-03-27T16:00:13.663Z,8.95
2019-03-27T16:05:21.068Z,9.90
2019-03-27T16:10:28.426Z,6.62
2019-03-27T16:15:37.165Z,10.72
2019-03-27T16:20:44.706Z,7.20
2019-03-27T16:25:52.075Z,11.73
2019-03-27T16:30:59.711Z,10.23
2019-03-27T16:36:08.282Z,10.45
2019-03-27T16:41:15.711Z,9.65
2019-03-27T16:46:23.182Z,11.97
2019-03-27T16:51:30.523Z,9.25
2019-03-27T16:56:38.690Z,8.85
2019-03-27T17:01:46.112Z,10.35
2019-03-27T17:06:53.445Z,10.70
2019-03-27T17:12:00.895Z,9.38
2019-03-27T17:17:10.282Z,10.50
2019-03-27T17:22:19.673Z,10.03
2019-03-27T17:27:26.731Z,10.60
2019-03-27T17:32:34.230Z,9.05
2019-03-27T17:37:41.731Z,13.15
2019-03-27T17:42:49.135Z,9.33
2019-03-27T17:47:56.503Z,18.10
2019-03-27T17:53:04.082Z,14.98
2019-03-27T17:58:11.470Z,41.45
2019-03-27T18:03:19.104Z,29.82
2019-03-27T18:08:26.512Z,20.92
2019-03-27T18:13:33.909Z,34.85
2019-03-27T18:18:41.251Z,15.28
2019-03-27T18:23:51.063Z,14.05
2019-03-27T18:28:58.550Z,29.57
2019-03-27T18:34:05.976Z,15.15
2019-03-27T18:39:13.398Z,14.45
2019-03-27T18:44:20.789Z,10.58
2019-03-27T18:49:28.255Z,24.85
2019-03-27T18:54:35.722Z,16.45
2019-03-27T18:59:46.122Z,20.00
2019-03-27T19:04:53.316Z,10.35
2019-03-27T19:10:00.779Z,10.20
2019-03-27T19:15:09.098Z,9.13
2019-03-27T19:20:16.634Z,10.60
2019-03-27T19:25:24.026Z,25.97
2019-03-27T19:30:31.696Z,13.08
2019-03-27T19:35:39.161Z,13.80
2019-03-27T19:40:46.802Z,12.23
2019-03-27T19:45:57.286Z,13.50
2019-03-27T19:51:03.280Z,19.70
2019-03-27T19:56:10.829Z,10.13
2019-03-27T20:01:18.201Z,11.78
2019-03-27T20:06:25.682Z,10.53
2019-03-27T20:11:33.271Z,14.18
2019-03-27T20:16:41.730Z,11.60
2019-03-27T20:21:49.156Z,12.40
2019-03-27T20:26:56.671Z,12.20
2019-03-27T20:32:04.616Z,12.13
2019-03-27T20:37:12.169Z,12.60
2019-03-27T20:42:19.427Z,10.15
2019-03-27T20:47:26.766Z,13.43
2019-03-27T20:52:34.115Z,16.23
2019-03-27T20:57:41.438Z,12.33
2019-03-27T21:02:48.862Z,16.02
2019-03-27T21:07:56.217Z,15.15
2019-03-27T21:13:03.509Z,12.93
2019-03-27T21:18:10.803Z,15.45
2019-03-27T21:23:18.125Z,12.90
2019-03-27T21:28:25.535Z,16.97
2019-03-27T21:33:32.904Z,16.10
2019-03-27T21:38:40.259Z,18.48
2019-03-27T21:43:47.522Z,14.45
2019-03-27T21:48:54.936Z,16.35
2019-03-27T21:54:02.259Z,16.77
2019-03-27T21:59:09.604Z,16.50
2019-03-27T22:04:17.027Z,18.40
2019-03-27T22:09:24.532Z,16.62
2019-03-27T22:14:32.024Z,16.32
2019-03-27T22:19:39.286Z,15.55
2019-03-27T22:24:46.679Z,17.82
2019-03-27T22:29:53.979Z,18.02
2019-03-27T22:35:01.422Z,19.02
2019-03-27T22:40:09.005Z,18.85
2019-03-27T22:45:16.426Z,19.27
2019-03-27T22:50:23.846Z,16.97
2019-03-27T22:55:31.294Z,19.40
2019-03-27T23:00:45.978Z,20.68
2019-03-27T23:05:53.480Z,24.12
2019-03-27T23:11:01.001Z,21.45
2019-03-27T23:16:08.624Z,15.38
2019-03-27T23:21:16.063Z,20.85
2019-03-27T23:26:23.577Z,18.37
2019-03-27T23:31:30.998Z,21.65
2019-03-27T23:36:38.339Z,20.57
2019-03-27T23:41:46.813Z,17.62
2019-03-27T23:46:54.234Z,20.80
2019-03-27T23:52:02.822Z,17.00
2019-03-27T23:57:10.282Z,18.67
